This is the latest recevied weather packets stored in our database for station/object AG1T-20. If no packets are shown the sender has not sent any weather packets the latest 1 day(s).
| Time | Temp. | Humidity | Pressure | Rain* | Wind** | Luminosity | Snow |
|---|---|---|---|---|---|---|---|
| 1778080805 | 7.22° C | 54% | 1021.6 hPa | 0 mm | - | 804 W/m² | - |
| 1778074805 | 4.44° C | 76% | 1020.3 hPa | 0 mm | - | 480 W/m² | - |
| 1778068205 | 2.22° C | 82% | 1018.5 hPa | 0 mm | - | 0 W/m² | - |
| 1778067605 | 2.22° C | 81% | 1018.5 hPa | 0 mm | - | 0 W/m² | - |
| 1778067005 | 2.22° C | 81% | 1018.5 hPa | 0 mm | - | 0 W/m² | - |
| 1778066405 | 2.22° C | 81% | 1018.5 hPa | 0 mm | - | 0 W/m² | - |
| 1778065805 | 2.78° C | 78% | 1018.5 hPa | 0 mm | - | 0 W/m² | - |
| 1778065205 | 3.33° C | 76% | 1018.5 hPa | 0 mm | - | 0 W/m² | - |
| 1778064605 | 3.33° C | 75% | 1018.2 hPa | 0 mm | - | 0 W/m² | - |
| 1778063405 | 3.33° C | 74% | 1018.2 hPa | 0 mm | - | 0 W/m² | - |
| 1778062805 | 3.33° C | 77% | 1018.2 hPa | 0 mm | - | 0 W/m² | - |
| 1778062205 | 3.89° C | 76% | 1018.2 hPa | 0 mm | - | 0 W/m² | - |
| 1778061605 | 3.89° C | 74% | 1018.2 hPa | 0 mm | - | 0 W/m² | - |
| 1778061005 | 4.44° C | 72% | 1018.1 hPa | 0 mm | - | 0 W/m² | - |
| 1778060405 | 5° C | 71% | 1018.1 hPa | 0 mm | - | 0 W/m² | - |
| 1778059805 | 5.56° C | 68% | 1018.1 hPa | 0 mm | - | 0 W/m² | - |
| 1778059205 | 5.56° C | 71% | 1018.1 hPa | 0 mm | - | 0 W/m² | - |
| 1778058605 | 6.11° C | 68% | 1018.1 hPa | 0 mm | - | 0 W/m² | - |
| 1778058005 | 6.67° C | 67% | 1018.1 hPa | 0 mm | - | 0 W/m² | - |
| 1778057405 | 6.67° C | 67% | 1017.6 hPa | 0 mm | - | 0 W/m² | - |
| 1778056805 | 7.22° C | 64% | 1017.6 hPa | 0 mm | - | 0 W/m² | - |
| 1778056205 | 7.78° C | 59% | 1017.6 hPa | 0 mm | - | 0 W/m² | - |
| 1778055605 | 7.78° C | 55% | 1017.6 hPa | 0 mm | - | 0 W/m² | - |
| 1778055005 | 7.78° C | 55% | 1017.6 hPa | 0 mm | - | 0 W/m² | - |
| 1778054405 | 8.33° C | 55% | 1017.6 hPa | 0 mm | - | 0 W/m² | - |
* Rain latest hour (hover to see other rain measurements)
** Current wind speed in m/s (hover to see current wind gust speed)